createdAt,value
2018-03-14T00:00:24.599Z,12.92
2018-03-14T00:01:26.456Z,12.93
2018-03-14T00:02:26.644Z,12.95
2018-03-14T00:03:27.252Z,12.9
2018-03-14T00:04:28.499Z,12.93
2018-03-14T00:05:27.980Z,12.95
2018-03-14T00:06:28.893Z,12.93
2018-03-14T00:07:30.870Z,12.92
2018-03-14T00:08:32.857Z,12.93
2018-03-14T00:09:32.737Z,12.93
2018-03-14T00:10:32.524Z,12.93
2018-03-14T00:11:34.127Z,12.92
2018-03-14T00:12:35.162Z,12.93
2018-03-14T00:13:35.906Z,12.96
2018-03-14T00:14:37.636Z,12.92
2018-03-14T00:15:39.029Z,12.93
2018-03-14T00:16:40.073Z,12.9
2018-03-14T00:17:41.004Z,12.95
2018-03-14T00:18:44.088Z,12.9
2018-03-14T00:19:41.962Z,12.9
2018-03-14T00:20:43.674Z,12.92
2018-03-14T00:21:44.687Z,12.92
2018-03-14T00:22:45.657Z,12.95
2018-03-14T00:23:47.598Z,12.93
2018-03-14T00:24:49.140Z,12.92
2018-03-14T00:25:49.632Z,12.96
2018-03-14T00:26:49.982Z,12.9
2018-03-14T00:27:52.212Z,12.95
2018-03-14T00:28:52.129Z,12.9
2018-03-14T00:29:53.172Z,12.92
2018-03-14T00:30:53.362Z,12.96
2018-03-14T00:31:53.802Z,12.92
2018-03-14T00:32:56.097Z,12.93
2018-03-14T00:33:56.401Z,12.93
2018-03-14T00:34:59.238Z,12.93
2018-03-14T00:35:58.167Z,12.9
2018-03-14T00:36:59.785Z,12.93
2018-03-14T00:38:00.211Z,12.9
2018-03-14T00:39:01.388Z,12.93
2018-03-14T00:40:02.821Z,12.93
2018-03-14T00:41:03.171Z,12.93
2018-03-14T00:42:04.885Z,12.9
2018-03-14T00:43:05.298Z,12.93
2018-03-14T00:44:06.586Z,12.93
2018-03-14T00:45:07.714Z,12.93
2018-03-14T00:46:10.331Z,12.9
2018-03-14T00:47:10.853Z,12.93
2018-03-14T00:48:10.674Z,12.93
2018-03-14T00:49:11.902Z,12.89
2018-03-14T00:50:12.999Z,12.9
2018-03-14T00:51:12.718Z,12.93
2018-03-14T00:52:13.650Z,12.9
2018-03-14T00:53:15.448Z,12.93
2018-03-14T00:54:16.678Z,12.93
2018-03-14T00:55:17.401Z,12.9
2018-03-14T00:56:18.297Z,12.9
2018-03-14T00:57:20.108Z,12.9
2018-03-14T00:58:21.019Z,12.92
2018-03-14T00:59:23.135Z,12.92
2018-03-14T01:00:22.757Z,12.93
2018-03-14T01:01:23.688Z,12.96
2018-03-14T01:02:24.829Z,12.89
2018-03-14T01:03:27.656Z,12.93
2018-03-14T01:04:26.611Z,12.93
2018-03-14T01:05:28.874Z,12.93
2018-03-14T01:06:27.794Z,12.93
2018-03-14T01:07:30.268Z,12.9
2018-03-14T01:08:31.345Z,12.93
2018-03-14T01:09:31.065Z,12.93
2018-03-14T01:10:32.618Z,12.93
2018-03-14T01:11:34.728Z,12.93
2018-03-14T01:12:33.602Z,12.9
2018-03-14T01:13:35.338Z,12.93
2018-03-14T01:14:36.920Z,12.9
2018-03-14T01:15:37.298Z,12.92
2018-03-14T01:16:39.044Z,12.93
2018-03-14T01:17:39.946Z,12.93
2018-03-14T01:18:41.972Z,12.93
2018-03-14T01:19:42.262Z,12.93
2018-03-14T01:20:43.203Z,12.93
2018-03-14T01:21:42.500Z,12.9
2018-03-14T01:22:43.656Z,12.93
2018-03-14T01:23:45.752Z,12.93
2018-03-14T01:24:46.522Z,12.93
2018-03-14T01:25:47.301Z,12.89
2018-03-14T01:26:49.634Z,12.92
2018-03-14T01:27:50.198Z,12.93
2018-03-14T01:28:51.728Z,12.92
2018-03-14T01:29:53.374Z,12.93
2018-03-14T01:30:53.550Z,12.92
2018-03-14T01:31:54.352Z,12.92
2018-03-14T01:32:53.982Z,12.92
2018-03-14T01:33:55.600Z,12.93
2018-03-14T01:34:56.017Z,12.96
2018-03-14T01:35:58.534Z,12.89
2018-03-14T01:36:58.658Z,12.89
2018-03-14T01:37:58.684Z,12.9
2018-03-14T01:39:01.233Z,12.93
2018-03-14T01:40:02.382Z,12.93
2018-03-14T01:41:03.143Z,12.89
2018-03-14T01:42:04.700Z,12.93
2018-03-14T01:43:04.729Z,12.95
2018-03-14T01:44:06.016Z,12.93
2018-03-14T01:45:07.046Z,12.96
2018-03-14T01:46:08.396Z,12.93
2018-03-14T01:47:08.772Z,12.93
2018-03-14T01:48:10.462Z,12.92
2018-03-14T01:49:10.698Z,12.93
2018-03-14T01:50:11.232Z,12.93
2018-03-14T01:51:11.909Z,12.92
2018-03-14T01:52:12.808Z,12.92
2018-03-14T01:53:14.440Z,12.93
2018-03-14T01:54:16.216Z,12.89
2018-03-14T01:55:17.750Z,12.95
2018-03-14T01:56:18.598Z,12.93
2018-03-14T01:57:18.265Z,12.93
2018-03-14T01:58:19.219Z,12.9
2018-03-14T01:59:19.518Z,12.9
2018-03-14T02:00:22.901Z,12.93
2018-03-14T02:01:23.224Z,12.93
2018-03-14T02:02:23.462Z,12.89
2018-03-14T02:03:24.532Z,12.89
2018-03-14T02:04:25.308Z,12.95
2018-03-14T02:05:28.591Z,12.93
2018-03-14T02:06:28.520Z,12.89
2018-03-14T02:07:29.356Z,12.89
2018-03-14T02:08:29.600Z,12.93
2018-03-14T02:09:29.970Z,12.9
2018-03-14T02:10:31.740Z,12.93
2018-03-14T02:11:31.820Z,12.92
2018-03-14T02:12:33.374Z,12.93
2018-03-14T02:13:34.029Z,12.92
2018-03-14T02:14:37.215Z,12.93
2018-03-14T02:15:36.644Z,12.93
2018-03-14T02:16:37.096Z,12.93
2018-03-14T02:17:38.118Z,12.93
2018-03-14T02:18:39.398Z,12.93
2018-03-14T02:19:39.528Z,12.9
2018-03-14T02:20:41.570Z,12.93
2018-03-14T02:21:42.931Z,12.93
2018-03-14T02:22:44.057Z,12.93
2018-03-14T02:23:46.598Z,12.9
2018-03-14T02:24:46.070Z,12.89
2018-03-14T02:25:46.344Z,12.93
2018-03-14T02:26:46.910Z,12.93
2018-03-14T02:27:48.590Z,12.89
2018-03-14T02:28:48.892Z,12.92
2018-03-14T02:29:49.829Z,12.93
2018-03-14T02:30:53.760Z,12.93
2018-03-14T02:31:53.469Z,12.86
2018-03-14T02:32:53.892Z,12.93
2018-03-14T02:33:54.833Z,12.89
2018-03-14T02:34:55.975Z,12.95
2018-03-14T02:35:55.680Z,12.89
2018-03-14T02:36:56.254Z,12.86
2018-03-14T02:37:58.184Z,12.93
2018-03-14T02:38:59.522Z,12.92
2018-03-14T02:40:01.359Z,12.93
2018-03-14T02:41:05.630Z,12.93
2018-03-14T02:42:02.735Z,12.93
2018-03-14T02:43:04.936Z,12.93
2018-03-14T02:44:04.135Z,12.9
2018-03-14T02:45:07.019Z,12.89
2018-03-14T02:46:09.266Z,12.93
2018-03-14T02:47:08.725Z,12.9
2018-03-14T02:48:09.367Z,12.92
2018-03-14T02:49:10.426Z,12.93
2018-03-14T02:50:11.782Z,12.9
2018-03-14T02:51:12.084Z,12.9
2018-03-14T02:52:13.239Z,12.93
2018-03-14T02:53:14.538Z,12.9
2018-03-14T02:54:14.646Z,12.9
2018-03-14T02:55:16.088Z,12.93
2018-03-14T02:56:17.516Z,12.93
2018-03-14T02:57:18.150Z,12.9
2018-03-14T02:58:20.358Z,12.93
2018-03-14T02:59:21.034Z,12.96
2018-03-14T03:00:21.702Z,12.89
2018-03-14T03:01:22.388Z,12.93
2018-03-14T03:02:23.854Z,12.93
2018-03-14T03:03:23.973Z,12.93
2018-03-14T03:04:25.289Z,12.9
2018-03-14T03:05:26.279Z,12.9
2018-03-14T03:06:27.042Z,12.9
2018-03-14T03:07:27.985Z,12.93
2018-03-14T03:08:30.377Z,12.92
2018-03-14T03:09:30.598Z,12.93
2018-03-14T03:10:32.482Z,12.9
2018-03-14T03:11:33.315Z,12.93
2018-03-14T03:12:34.321Z,12.89
2018-03-14T03:13:35.087Z,12.9
2018-03-14T03:14:38.152Z,12.93
2018-03-14T03:15:36.761Z,12.92
2018-03-14T03:16:39.738Z,12.86
2018-03-14T03:17:39.133Z,12.93
2018-03-14T03:18:39.173Z,12.92
2018-03-14T03:19:41.464Z,12.9
2018-03-14T03:20:40.694Z,12.93
2018-03-14T03:21:42.829Z,12.93
2018-03-14T03:22:43.411Z,12.93
2018-03-14T03:23:44.542Z,12.93
2018-03-14T03:24:45.360Z,12.89
2018-03-14T03:25:46.292Z,12.93
2018-03-14T03:26:48.206Z,12.9
2018-03-14T03:27:48.288Z,12.93
2018-03-14T03:28:50.916Z,12.9
2018-03-14T03:29:50.065Z,12.93
2018-03-14T03:30:51.922Z,12.93
2018-03-14T03:31:53.325Z,12.93
2018-03-14T03:32:55.506Z,12.96
2018-03-14T03:33:55.595Z,12.92
2018-03-14T03:34:56.646Z,12.93
2018-03-14T03:35:56.668Z,12.93
2018-03-14T03:36:58.186Z,12.9
2018-03-14T03:37:58.560Z,12.89
2018-03-14T03:39:00.466Z,12.93
2018-03-14T03:40:00.665Z,12.93
2018-03-14T03:41:02.656Z,12.96
2018-03-14T03:42:02.588Z,12.92
2018-03-14T03:43:04.066Z,12.93
2018-03-14T03:44:04.315Z,12.96
2018-03-14T03:45:05.440Z,12.9
2018-03-14T03:46:05.960Z,12.92
2018-03-14T03:47:08.026Z,12.92
2018-03-14T03:48:07.679Z,12.93
2018-03-14T03:49:10.564Z,12.93
2018-03-14T03:50:11.292Z,12.93
2018-03-14T03:51:11.938Z,12.92
2018-03-14T03:52:12.294Z,12.9
2018-03-14T03:53:14.094Z,12.93
2018-03-14T03:54:14.046Z,12.92
2018-03-14T03:55:15.280Z,12.93
2018-03-14T03:56:16.942Z,12.92
2018-03-14T03:57:19.102Z,12.89
2018-03-14T03:58:19.248Z,12.9
2018-03-14T03:59:19.678Z,12.92
2018-03-14T04:00:20.716Z,12.92
2018-03-14T04:01:21.730Z,12.95
2018-03-14T04:02:22.766Z,12.95
2018-03-14T04:03:22.828Z,12.93
2018-03-14T04:04:25.444Z,12.93
2018-03-14T04:05:25.094Z,12.92
2018-03-14T04:06:25.566Z,12.96
2018-03-14T04:07:28.765Z,12.92
2018-03-14T04:08:28.576Z,12.9
2018-03-14T04:09:29.247Z,12.9
2018-03-14T04:10:30.330Z,12.92
2018-03-14T04:11:31.889Z,12.92
2018-03-14T04:12:33.328Z,12.95
2018-03-14T04:13:33.920Z,12.96
2018-03-14T04:14:34.413Z,12.93
2018-03-14T04:15:36.206Z,12.89
2018-03-14T04:16:36.650Z,12.96
2018-03-14T04:17:38.022Z,12.96
2018-03-14T04:18:39.135Z,12.9
2018-03-14T04:19:40.187Z,12.86
2018-03-14T04:20:41.288Z,12.9
2018-03-14T04:21:40.605Z,12.92
2018-03-14T04:22:42.155Z,12.92
2018-03-14T04:23:42.661Z,12.92
2018-03-14T04:24:46.453Z,12.93
2018-03-14T04:25:45.326Z,12.93
2018-03-14T04:26:47.191Z,12.93
2018-03-14T04:27:47.620Z,12.93
2018-03-14T04:28:48.972Z,12.93
2018-03-14T04:29:49.394Z,12.89
2018-03-14T04:30:50.077Z,12.93
2018-03-14T04:31:51.373Z,12.89
2018-03-14T04:32:52.405Z,12.9
2018-03-14T04:33:53.020Z,12.93
2018-03-14T04:34:55.652Z,12.9
2018-03-14T04:35:55.196Z,12.9
2018-03-14T04:36:56.499Z,12.93
2018-03-14T04:37:57.803Z,12.92
2018-03-14T04:38:58.551Z,12.9
2018-03-14T04:39:58.782Z,12.93
2018-03-14T04:41:01.894Z,12.9
2018-03-14T04:42:00.544Z,12.93
2018-03-14T04:43:02.862Z,12.9
2018-03-14T04:44:03.901Z,12.93
2018-03-14T04:45:03.941Z,12.9
2018-03-14T04:46:05.258Z,12.96
2018-03-14T04:47:07.104Z,12.96
2018-03-14T04:48:09.928Z,12.95
2018-03-14T04:49:09.262Z,12.93
2018-03-14T04:50:09.300Z,12.92
2018-03-14T04:51:10.983Z,12.92
2018-03-14T04:52:12.506Z,12.96
2018-03-14T04:54:14.569Z,12.93
2018-03-14T04:55:14.704Z,12.89
2018-03-14T04:56:16.137Z,12.92
2018-03-14T04:57:15.972Z,12.93
2018-03-14T04:58:18.120Z,12.95
2018-03-14T04:59:17.990Z,12.96
2018-03-14T05:00:20.287Z,12.93
2018-03-14T05:01:20.866Z,12.95
2018-03-14T05:02:21.570Z,12.92
2018-03-14T05:03:22.594Z,12.95
2018-03-14T05:04:24.233Z,12.96
2018-03-14T05:05:24.590Z,12.92
2018-03-14T05:06:25.715Z,12.92
2018-03-14T05:07:27.368Z,12.92
2018-03-14T05:08:29.232Z,12.96
2018-03-14T05:09:27.919Z,12.93
2018-03-14T05:10:29.300Z,12.92
2018-03-14T05:11:31.600Z,12.93
2018-03-14T05:12:32.352Z,12.93
2018-03-14T05:13:33.796Z,12.92
2018-03-14T05:14:35.228Z,12.92
2018-03-14T05:15:37.141Z,12.95
2018-03-14T05:16:36.823Z,12.93
2018-03-14T05:17:38.654Z,12.92
2018-03-14T05:18:39.449Z,12.96
2018-03-14T05:19:41.498Z,12.92
2018-03-14T05:20:40.195Z,12.95
2018-03-14T05:21:41.555Z,12.9
2018-03-14T05:22:42.567Z,12.92
2018-03-14T05:23:43.490Z,12.92
2018-03-14T05:24:44.232Z,12.95
2018-03-14T05:25:45.806Z,12.93
2018-03-14T05:26:46.506Z,12.95
2018-03-14T05:27:47.584Z,12.92
2018-03-14T05:28:48.285Z,12.95
2018-03-14T05:29:49.608Z,12.96
2018-03-14T05:30:50.946Z,12.92
2018-03-14T05:31:51.472Z,12.92
2018-03-14T05:32:53.264Z,12.92
2018-03-14T05:33:53.006Z,12.92
2018-03-14T05:34:54.428Z,12.92
2018-03-14T05:35:55.753Z,12.99
2018-03-14T05:36:57.097Z,12.93
2018-03-14T05:37:57.692Z,12.92
2018-03-14T05:38:59.311Z,12.92
2018-03-14T05:40:01.031Z,12.95
2018-03-14T05:41:01.055Z,12.92
2018-03-14T05:42:01.072Z,12.93
2018-03-14T05:43:02.787Z,12.93
2018-03-14T05:44:04.316Z,12.95
2018-03-14T05:45:04.788Z,12.92
2018-03-14T05:46:05.961Z,12.92
2018-03-14T05:47:07.190Z,12.92
2018-03-14T05:48:08.136Z,12.93
2018-03-14T05:49:07.999Z,12.93
2018-03-14T05:50:09.872Z,12.93
2018-03-14T05:51:10.010Z,12.95
2018-03-14T05:52:13.294Z,12.93
2018-03-14T05:53:12.755Z,12.9
2018-03-14T05:54:14.690Z,12.92
2018-03-14T05:55:13.542Z,12.93
2018-03-14T05:56:16.000Z,12.9
2018-03-14T05:57:17.058Z,12.93
2018-03-14T05:58:17.933Z,12.96
2018-03-14T05:59:19.979Z,12.95
2018-03-14T06:00:20.990Z,12.95
2018-03-14T06:01:21.645Z,12.92
2018-03-14T06:02:21.339Z,12.93
2018-03-14T06:03:22.255Z,12.92
2018-03-14T06:04:24.636Z,12.93
2018-03-14T06:05:24.964Z,12.92
2018-03-14T06:06:25.542Z,12.93
2018-03-14T06:07:26.414Z,12.93
2018-03-14T06:08:27.127Z,12.92
2018-03-14T06:09:30.848Z,12.93
2018-03-14T06:10:29.837Z,12.96
2018-03-14T06:11:31.711Z,12.93
2018-03-14T06:12:32.818Z,12.93
2018-03-14T06:13:32.018Z,12.96
2018-03-14T06:14:33.152Z,12.93
2018-03-14T06:15:33.524Z,12.92
2018-03-14T06:16:34.744Z,12.92
2018-03-14T06:17:35.634Z,12.92
2018-03-14T06:18:38.610Z,12.95
2018-03-14T06:19:38.577Z,12.93
2018-03-14T06:20:39.009Z,12.92
2018-03-14T06:21:40.260Z,12.93
2018-03-14T06:22:42.646Z,12.96
2018-03-14T06:23:43.008Z,12.95
2018-03-14T06:24:44.051Z,12.93
2018-03-14T06:25:45.270Z,12.92
2018-03-14T06:26:46.843Z,12.93
2018-03-14T06:27:45.966Z,12.92
2018-03-14T06:28:48.105Z,12.93
2018-03-14T06:29:49.412Z,12.95
2018-03-14T06:30:49.560Z,12.95
2018-03-14T06:31:50.603Z,12.92
2018-03-14T06:32:51.187Z,12.96
2018-03-14T06:33:53.416Z,12.95
2018-03-14T06:34:53.728Z,12.93
2018-03-14T06:35:54.995Z,12.95
2018-03-14T06:36:56.256Z,12.95
2018-03-14T06:37:56.949Z,12.92
2018-03-14T06:38:57.164Z,12.92
2018-03-14T06:39:59.097Z,12.95
2018-03-14T06:40:59.825Z,12.92
2018-03-14T06:42:00.796Z,12.95
2018-03-14T06:43:02.263Z,12.92
2018-03-14T06:44:03.268Z,12.92
2018-03-14T06:45:05.102Z,12.92
2018-03-14T06:46:04.720Z,12.92
2018-03-14T06:47:05.870Z,12.99
2018-03-14T06:48:06.596Z,12.96
2018-03-14T06:49:07.578Z,13.05
2018-03-14T06:50:10.436Z,12.98
2018-03-14T06:51:08.938Z,13.05
2018-03-14T06:52:11.501Z,13.06
2018-03-14T06:53:12.768Z,13.11
2018-03-14T06:54:14.191Z,13.09
2018-03-14T06:55:14.048Z,13.09
2018-03-14T06:56:16.036Z,13.17
2018-03-14T06:57:16.148Z,13.15
2018-03-14T06:58:17.326Z,13.17
2018-03-14T06:59:17.406Z,13.15
2018-03-14T07:00:21.318Z,13.17
2018-03-14T07:01:19.684Z,13.12
2018-03-14T07:02:22.250Z,13.12
2018-03-14T07:03:21.756Z,13.08
2018-03-14T07:04:23.206Z,13.06
2018-03-14T07:05:23.618Z,13.05
2018-03-14T07:06:23.799Z,12.98
2018-03-14T07:07:26.152Z,12.99
2018-03-14T07:09:34.007Z,12.96
2018-03-14T07:09:36.411Z,12.96
2018-03-14T07:10:38.532Z,12.92
2018-03-14T07:11:39.513Z,12.92
2018-03-14T07:12:40.328Z,12.92
2018-03-14T07:13:41.996Z,12.92
2018-03-14T07:14:42.265Z,12.92
2018-03-14T07:15:44.446Z,12.92
2018-03-14T07:16:44.557Z,12.92
2018-03-14T07:17:45.610Z,12.96
2018-03-14T07:18:46.889Z,12.99
2018-03-14T07:19:48.396Z,12.95
2018-03-14T07:20:49.112Z,12.92
2018-03-14T07:21:49.902Z,12.99
2018-03-14T07:22:51.571Z,12.92
2018-03-14T07:23:52.223Z,12.99
2018-03-14T07:24:54.905Z,12.92
2018-03-14T07:25:53.918Z,12.96
2018-03-14T07:26:54.605Z,12.96
2018-03-14T07:27:55.595Z,12.95
2018-03-14T07:28:57.372Z,12.92
2018-03-14T07:29:58.394Z,12.95
2018-03-14T07:30:59.670Z,12.95
2018-03-14T07:32:01.728Z,12.92
2018-03-14T07:33:53.400Z,12.99
2018-03-14T07:34:02.678Z,12.95
2018-03-14T07:35:03.247Z,12.96
2018-03-14T07:36:04.808Z,12.92
2018-03-14T07:37:06.046Z,12.95
2018-03-14T07:38:06.380Z,12.99
2018-03-14T07:39:07.036Z,12.99
2018-03-14T07:40:10.495Z,12.92
2018-03-14T07:41:39.043Z,12.95
2018-03-14T07:42:11.418Z,12.99
2018-03-14T07:43:11.565Z,12.99
2018-03-14T07:44:14.666Z,12.95
2018-03-14T07:45:13.548Z,12.92
2018-03-14T07:46:15.396Z,12.95
2018-03-14T07:47:15.195Z,12.99
2018-03-14T07:48:15.912Z,12.96
2018-03-14T07:49:18.137Z,12.98
2018-03-14T07:50:18.936Z,12.95
2018-03-14T07:51:19.724Z,12.92
2018-03-14T07:52:20.618Z,12.92
2018-03-14T07:53:22.224Z,12.99
2018-03-14T07:54:22.416Z,12.98
2018-03-14T07:55:22.613Z,12.98
2018-03-14T07:56:24.906Z,13.02
2018-03-14T07:57:24.894Z,13.04
2018-03-14T07:58:26.203Z,13.06
2018-03-14T07:59:26.614Z,13.12
2018-03-14T08:00:27.812Z,13.2
2018-03-14T08:01:29.422Z,13.21
2018-03-14T08:02:31.344Z,13.21
2018-03-14T08:03:32.613Z,13.31
2018-03-14T08:04:33.331Z,13.33
2018-03-14T08:05:35.210Z,13.52
2018-03-14T08:06:34.609Z,13.7
2018-03-14T08:07:36.497Z,13.83
2018-03-14T08:08:37.387Z,14
2018-03-14T08:10:10.180Z,14.09
2018-03-14T08:10:40.617Z,14.12
2018-03-14T08:11:40.676Z,14.18
2018-03-14T08:12:43.361Z,14.22
2018-03-14T08:13:41.721Z,14.06
2018-03-14T08:14:43.081Z,14.15
2018-03-14T08:15:43.027Z,14.19
2018-03-14T08:16:45.710Z,14.09
2018-03-14T08:17:45.132Z,14.19
2018-03-14T08:18:45.534Z,14.12
2018-03-14T08:19:46.492Z,14.13
2018-03-14T08:20:48.109Z,14.11
2018-03-14T08:21:50.088Z,14.19
2018-03-14T08:22:51.062Z,14.19
2018-03-14T08:23:51.571Z,14.19
2018-03-14T08:24:52.765Z,14.15
2018-03-14T08:25:54.315Z,14.16
2018-03-14T08:26:54.219Z,14.19
2018-03-14T08:27:57.190Z,14.15
2018-03-14T08:28:56.404Z,14.08
2018-03-14T08:29:57.277Z,14.03
2018-03-14T08:31:00.192Z,13.97
2018-03-14T08:31:59.437Z,13.91
2018-03-14T08:33:01.398Z,13.93
2018-03-14T08:34:01.391Z,13.91
2018-03-14T08:35:03.577Z,14
2018-03-14T08:36:03.978Z,14.05
2018-03-14T08:37:04.133Z,14.05
2018-03-14T08:38:05.356Z,14.12
2018-03-14T08:39:06.072Z,14.19
2018-03-14T08:40:07.826Z,14.16
2018-03-14T08:41:10.901Z,14.15
2018-03-14T08:42:09.896Z,14.11
2018-03-14T08:43:10.737Z,14.19
2018-03-14T08:44:11.021Z,14.13
2018-03-14T08:45:12.760Z,14.11
2018-03-14T08:46:13.338Z,14.09
2018-03-14T08:47:14.167Z,14.09
2018-03-14T08:48:16.178Z,14.11
2018-03-14T08:49:16.746Z,14.03
2018-03-14T08:50:18.372Z,14.06
2018-03-14T08:51:18.262Z,14.11
2018-03-14T08:52:19.372Z,14.06
2018-03-14T08:53:21.163Z,14.03
2018-03-14T08:54:21.576Z,14.03
2018-03-14T08:55:22.400Z,14.06
2018-03-14T08:56:23.333Z,14.05
2018-03-14T08:57:24.196Z,14.06
2018-03-14T08:58:24.821Z,14.05
2018-03-14T08:59:26.765Z,14.09
2018-03-14T09:00:27.020Z,13.97
2018-03-14T09:01:29.571Z,14.05
2018-03-14T09:02:29.662Z,14.11
2018-03-14T09:03:30.392Z,14.08
2018-03-14T09:04:34.698Z,14.11
2018-03-14T09:05:32.284Z,14.03
2018-03-14T09:06:33.358Z,14.11
2018-03-14T09:07:35.014Z,14.08
2018-03-14T09:08:38.199Z,14.06
2018-03-14T09:09:36.451Z,14.11
2018-03-14T09:10:36.915Z,14.03
2018-03-14T09:11:39.402Z,14.03
2018-03-14T09:12:42.468Z,13.97
2018-03-14T09:13:40.736Z,14.06
2018-03-14T09:14:41.959Z,14.09
2018-03-14T09:15:41.777Z,14.05
2018-03-14T09:16:43.474Z,13.97
2018-03-14T09:17:45.996Z,14.05
2018-03-14T09:18:45.576Z,14.08
2018-03-14T09:19:47.733Z,14.05
2018-03-14T09:20:46.962Z,14.02
2018-03-14T09:21:48.497Z,14.08
2018-03-14T09:22:50.327Z,13.97
2018-03-14T09:23:53.425Z,14.06
2018-03-14T09:24:53.238Z,14.05
2018-03-14T09:25:55.094Z,13.97
2018-03-14T09:26:55.609Z,14.03
2018-03-14T09:27:55.794Z,14.02
2018-03-14T09:28:59.068Z,14.02
2018-03-14T09:29:56.166Z,14.03
2018-03-14T09:31:09.087Z,14.03
2018-03-14T09:31:58.970Z,14.03
2018-03-14T09:33:00.115Z,14.05
2018-03-14T09:34:03.413Z,13.94
2018-03-14T09:35:02.962Z,13.89
2018-03-14T09:36:03.898Z,13.99
2018-03-14T09:37:03.727Z,13.94
2018-03-14T09:38:05.262Z,14.08
2018-03-14T09:39:08.747Z,14.03
2018-03-14T09:40:06.572Z,14.08
2018-03-14T09:41:08.448Z,14.06
2018-03-14T09:42:09.206Z,14.08
2018-03-14T09:43:10.087Z,14.02
2018-03-14T09:44:11.718Z,14.05
2018-03-14T09:45:11.267Z,14.03
2018-03-14T09:46:13.731Z,13.99
2018-03-14T09:47:14.185Z,13.94
2018-03-14T09:48:14.058Z,13.94
2018-03-14T09:49:16.951Z,14.03
2018-03-14T09:50:16.659Z,14.03
2018-03-14T09:51:16.540Z,14
2018-03-14T09:52:20.256Z,14.05
2018-03-14T09:53:21.273Z,14
2018-03-14T09:54:21.560Z,14.05
2018-03-14T09:55:22.546Z,14.11
2018-03-14T09:56:22.452Z,14.03
2018-03-14T09:57:24.104Z,14.05
2018-03-14T09:58:24.006Z,14.09
2018-03-14T09:59:25.552Z,14.05
2018-03-14T10:00:26.310Z,14.13
2018-03-14T10:01:27.412Z,14.09
2018-03-14T10:02:29.268Z,14.11
2018-03-14T10:03:30.337Z,14.19
2018-03-14T10:04:31.438Z,14.15
2018-03-14T10:05:33.902Z,14.12
2018-03-14T10:06:33.742Z,14.19
2018-03-14T10:07:33.210Z,14.13
2018-03-14T10:08:38.104Z,14.16
2018-03-14T10:09:35.109Z,14.19
2018-03-14T10:10:38.875Z,14.15
2018-03-14T10:11:37.095Z,14.19
2018-03-14T10:12:37.779Z,14.13
2018-03-14T10:13:38.827Z,14.19
2018-03-14T10:14:41.722Z,14.15
2018-03-14T10:15:40.472Z,14.22
2018-03-14T10:16:45.190Z,14.15
2018-03-14T10:17:45.104Z,14.16
2018-03-14T10:18:44.936Z,14.22
2018-03-14T10:19:45.840Z,14.18
2018-03-14T10:20:49.052Z,14.15
2018-03-14T10:21:48.581Z,14.22
2018-03-14T10:22:48.509Z,14.22
2018-03-14T10:23:50.292Z,14.19
2018-03-14T10:24:52.950Z,14.22
2018-03-14T10:25:51.594Z,14.22
2018-03-14T10:26:53.545Z,14.16
2018-03-14T10:27:54.142Z,14.15
2018-03-14T10:28:55.189Z,14.15
2018-03-14T10:29:55.146Z,14.15
2018-03-14T10:30:56.002Z,14.19
2018-03-14T10:31:56.670Z,14.15
2018-03-14T10:32:59.332Z,14.16
2018-03-14T10:33:59.732Z,14.22
2018-03-14T10:35:01.450Z,14.15
2018-03-14T10:36:01.423Z,14.16
2018-03-14T10:37:03.053Z,14.22
2018-03-14T10:38:03.969Z,14.19
2018-03-14T10:39:04.925Z,14.15
2018-03-14T10:40:07.605Z,14.16
2018-03-14T10:41:07.576Z,14.13
2018-03-14T10:42:07.874Z,14.21
2018-03-14T10:43:11.300Z,14.16
2018-03-14T10:44:10.422Z,14.22
2018-03-14T10:45:13.886Z,14.18
2018-03-14T10:46:13.814Z,14.15
2018-03-14T10:47:15.366Z,14.15
2018-03-14T10:48:15.740Z,14.16
2018-03-14T10:49:16.965Z,14.15
2018-03-14T10:50:17.484Z,14.15
2018-03-14T10:51:21.090Z,14.22
2018-03-14T10:52:18.213Z,14.22
2018-03-14T10:53:19.644Z,14.18
2018-03-14T10:54:20.632Z,14.22
2018-03-14T10:55:25.342Z,14.22
2018-03-14T10:56:23.352Z,13.97
2018-03-14T10:57:26.200Z,14.18
2018-03-14T10:58:26.710Z,14.21
2018-03-14T10:59:24.998Z,14.21
2018-03-14T11:00:26.444Z,14.12
2018-03-14T11:01:27.127Z,14.09
2018-03-14T11:02:28.290Z,14.09
2018-03-14T11:03:32.604Z,14.15
2018-03-14T11:04:29.635Z,14.08
2018-03-14T11:05:31.095Z,14.11
2018-03-14T11:06:31.709Z,14.09
2018-03-14T11:07:33.254Z,13.96
2018-03-14T11:08:36.670Z,14.03
2018-03-14T11:09:35.644Z,13.91
2018-03-14T11:10:37.094Z,14.06
2018-03-14T11:11:37.900Z,14.11
2018-03-14T11:12:38.189Z,14.11
2018-03-14T11:13:40.077Z,14.16
2018-03-14T11:14:42.963Z,14.08
2018-03-14T11:15:42.688Z,13.94
2018-03-14T11:16:43.514Z,14.02
2018-03-14T11:17:45.426Z,14.09
2018-03-14T11:18:46.014Z,14.09
2018-03-14T11:19:46.695Z,14.11
2018-03-14T11:20:49.343Z,14.03
2018-03-14T11:21:51.562Z,14.03
2018-03-14T11:22:49.034Z,14.16
2018-03-14T11:23:50.342Z,14.06
2018-03-14T11:24:51.925Z,13.9
2018-03-14T11:25:52.053Z,13.99
2018-03-14T11:26:52.654Z,13.89
2018-03-14T11:27:54.768Z,14.09
2018-03-14T11:28:54.064Z,14.03
2018-03-14T11:29:55.012Z,14.12
2018-03-14T11:30:57.026Z,14.12
2018-03-14T11:31:56.688Z,14.06
2018-03-14T11:32:57.691Z,14.11
2018-03-14T11:33:59.338Z,14.06
2018-03-14T11:34:59.988Z,14.08
2018-03-14T11:36:02.161Z,14.11
2018-03-14T11:37:01.804Z,14.11
2018-03-14T11:38:03.625Z,14.09
2018-03-14T11:39:03.672Z,14.08
2018-03-14T11:40:04.716Z,13.93
2018-03-14T11:41:07.026Z,14.06
2018-03-14T11:42:07.613Z,14.09
2018-03-14T11:43:09.748Z,14.06
2018-03-14T11:44:10.558Z,14.08
2018-03-14T11:45:10.882Z,14.11
2018-03-14T11:46:12.246Z,14.08
2018-03-14T11:47:14.936Z,14.11
2018-03-14T11:48:12.945Z,14.08
2018-03-14T11:49:14.211Z,14.08
2018-03-14T11:50:15.242Z,13.91
2018-03-14T11:51:16.475Z,13.91
2018-03-14T11:52:16.484Z,13.87
2018-03-14T11:53:17.697Z,13.8
2018-03-14T11:54:21.337Z,14.08
2018-03-14T11:55:22.266Z,13.99
2018-03-14T11:56:21.316Z,13.99
2018-03-14T11:57:22.451Z,13.99
2018-03-14T11:58:23.729Z,13.9
2018-03-14T11:59:24.312Z,13.8
2018-03-14T12:00:26.003Z,14.06
2018-03-14T12:01:27.077Z,14.03
2018-03-14T12:02:27.032Z,14.11
2018-03-14T12:03:28.781Z,13.99
2018-03-14T12:04:30.066Z,14.03
2018-03-14T12:05:31.189Z,14
2018-03-14T12:06:31.449Z,14.08
2018-03-14T12:07:33.660Z,13.91
2018-03-14T12:08:33.266Z,13.91
2018-03-14T12:09:35.186Z,14.02
2018-03-14T12:10:35.710Z,13.86
2018-03-14T12:11:37.554Z,13.9
2018-03-14T12:12:37.157Z,14.05
2018-03-14T12:13:37.462Z,14.03
2018-03-14T12:14:39.126Z,14
2018-03-14T12:15:41.086Z,14.05
2018-03-14T12:16:41.337Z,14.05
2018-03-14T12:17:44.348Z,14
2018-03-14T12:18:43.201Z,14.05
2018-03-14T12:19:46.289Z,14.06
2018-03-14T12:20:44.867Z,14.08
2018-03-14T12:21:47.149Z,14.05
2018-03-14T12:22:48.204Z,13.97
2018-03-14T12:23:49.786Z,13.97
2018-03-14T12:24:50.109Z,13.87
2018-03-14T12:25:52.468Z,14.06
2018-03-14T12:26:54.330Z,14.08
2018-03-14T12:27:53.994Z,13.97
2018-03-14T12:28:55.385Z,14.03
2018-03-14T12:29:55.828Z,14.08
2018-03-14T12:30:57.770Z,14.03
2018-03-14T12:31:58.434Z,14.03
2018-03-14T12:32:58.253Z,13.97
2018-03-14T12:34:00.026Z,14.02
2018-03-14T12:35:01.247Z,13.97
2018-03-14T12:36:01.547Z,14.02
2018-03-14T12:37:02.722Z,14.05
2018-03-14T12:38:03.301Z,14
2018-03-14T12:39:04.886Z,14.02
2018-03-14T12:40:06.108Z,14.06
2018-03-14T12:41:07.068Z,14.08
2018-03-14T12:42:08.455Z,14.02
2018-03-14T12:43:10.763Z,14.05
2018-03-14T12:44:10.375Z,13.93
2018-03-14T12:45:10.721Z,14.05
2018-03-14T12:46:11.686Z,14.05
2018-03-14T12:47:15.215Z,14.03
2018-03-14T12:48:13.561Z,14.03
2018-03-14T12:49:16.604Z,14.08
2018-03-14T12:50:15.902Z,14.03
2018-03-14T12:51:17.742Z,14.11
2018-03-14T12:52:18.683Z,14
2018-03-14T12:53:18.362Z,13.99
2018-03-14T12:54:19.482Z,13.87
2018-03-14T12:55:21.403Z,13.8
2018-03-14T12:56:21.025Z,13.94
2018-03-14T12:57:22.897Z,14.03
2018-03-14T12:58:22.762Z,14.08
2018-03-14T12:59:24.138Z,14.03
2018-03-14T13:00:25.213Z,14.02
2018-03-14T13:01:27.547Z,14.06
2018-03-14T13:02:28.389Z,14.05
2018-03-14T13:03:29.656Z,13.8
2018-03-14T13:04:29.418Z,14
2018-03-14T13:05:32.539Z,13.81
2018-03-14T13:06:33.095Z,13.77
2018-03-14T13:07:34.375Z,13.71
2018-03-14T13:08:33.134Z,14.03
2018-03-14T13:09:36.122Z,14.02